PWSweather.com
Personal Weather Stations
Station Observations

ChardChardGB

Lat: 50.877408, Lon: -2.94964741

Elevation: 341

Station Type: WS3083

http://www.merriott-astro.co.uk/weather/index.htm

High Low Average
Temperature 55.6°F13.1°C 44.1°F6.7°C 47.0°F8.3°C
Dew Point 40.1°F4.5°C 34.2°F1.2°C 38.2°F3.4°C
Winds 16.8 mph 27.0 kmh 2.2 mph 3.5 kmh 9.0 mph S14.5 kmh S
Wind Gusts 18.3 mph29.5 kmh 2.2 mph3.5 kmh 11.0 mph17.7 kmh
Humidity 84% 47% 72%
Pressure 29.01 in982.4 mb 28.60 in968.5 mb -
Precipitation 0.09 in2.3 mm - -
Hour Temp Dew Point Humidity Winds Wind Gusts Pressure Precip Precip Rate Daily Precip Total
12:00 AM 44.4°F6.9°C 39.9°F4.4°C 84% 16.8 mph SW27.0 kmh SW 18.3 mph29.5 kmh 29.01 in982.4 mb 0.00 in0.0 mm 0.00 in0.0 mm 0.00 in0.0 mm
12:10 AM 44.4°F6.9°C 39.9°F4.4°C 84% 16.8 mph SW27.0 kmh SW 18.3 mph29.5 kmh 29.01 in982.4 mb 0.00 in0.0 mm 0.00 in0.0 mm 0.00 in0.0 mm
12:20 AM 44.4°F6.9°C 39.9°F4.4°C 84% 16.8 mph SW27.0 kmh SW 18.3 mph29.5 kmh 29.01 in982.4 mb 0.00 in0.0 mm 0.00 in0.0 mm 0.00 in0.0 mm
12:30 AM 44.4°F6.9°C 39.9°F4.4°C 84% 16.8 mph SW27.0 kmh SW 18.3 mph29.5 kmh 29.00 in982.1 mb 0.00 in0.0 mm 0.00 in0.0 mm 0.00 in0.0 mm
12:40 AM 44.4°F6.9°C 39.9°F4.4°C 84% 16.8 mph SW27.0 kmh SW 18.3 mph29.5 kmh 28.99 in981.7 mb 0.00 in0.0 mm 0.00 in0.0 mm 0.00 in0.0 mm
12:50 AM 44.4°F6.9°C 39.9°F4.4°C 84% 16.8 mph SW27.0 kmh SW 18.3 mph29.5 kmh 29.00 in982.1 mb 0.00 in0.0 mm 0.00 in0.0 mm 0.00 in0.0 mm
01:00 AM 44.4°F6.9°C 39.9°F4.4°C 84% 16.8 mph SW27.0 kmh SW 18.3 mph29.5 kmh 29.00 in982.1 mb 0.00 in0.0 mm 0.00 in0.0 mm 0.00 in0.0 mm
01:10 AM 44.4°F6.9°C 39.9°F4.4°C 84% 16.8 mph SW27.0 kmh SW 18.3 mph29.5 kmh 28.98 in981.4 mb 0.00 in0.0 mm 0.00 in0.0 mm 0.00 in0.0 mm
01:20 AM 44.4°F6.9°C 39.9°F4.4°C 84% 16.8 mph SW27.0 kmh SW 18.3 mph29.5 kmh 28.97 in981.0 mb 0.00 in0.0 mm 0.00 in0.0 mm 0.00 in0.0 mm
01:30 AM 44.4°F6.9°C 39.9°F4.4°C 84% 16.8 mph SW27.0 kmh SW 18.3 mph29.5 kmh 28.96 in980.7 mb 0.00 in0.0 mm 0.00 in0.0 mm 0.00 in0.0 mm
01:40 AM 44.4°F6.9°C 39.9°F4.4°C 84% 16.8 mph SW27.0 kmh SW 18.3 mph29.5 kmh 28.95 in980.4 mb 0.00 in0.0 mm 0.00 in0.0 mm 0.00 in0.0 mm
01:50 AM 44.4°F6.9°C 39.9°F4.4°C 84% 16.8 mph SW27.0 kmh SW 18.3 mph29.5 kmh 28.95 in980.4 mb 0.00 in0.0 mm 0.00 in0.0 mm 0.00 in0.0 mm
02:00 AM 44.4°F6.9°C 39.9°F4.4°C 84% 16.8 mph SW27.0 kmh SW 18.3 mph29.5 kmh 28.94 in980.0 mb 0.00 in0.0 mm 0.00 in0.0 mm 0.00 in0.0 mm
02:10 AM 44.4°F6.9°C 39.9°F4.4°C 84% 16.8 mph SW27.0 kmh SW 18.3 mph29.5 kmh 28.93 in979.7 mb 0.00 in0.0 mm 0.00 in0.0 mm 0.00 in0.0 mm
02:20 AM 44.4°F6.9°C 39.9°F4.4°C 84% 16.8 mph SW27.0 kmh SW 18.3 mph29.5 kmh 28.93 in979.7 mb 0.00 in0.0 mm 0.00 in0.0 mm 0.00 in0.0 mm
02:30 AM 44.4°F6.9°C 39.9°F4.4°C 84% 16.8 mph SW27.0 kmh SW 18.3 mph29.5 kmh 28.92 in979.3 mb 0.00 in0.0 mm 0.00 in0.0 mm 0.00 in0.0 mm
02:40 AM 44.4°F6.9°C 39.9°F4.4°C 84% 16.8 mph SW27.0 kmh SW 18.3 mph29.5 kmh 28.91 in979.0 mb 0.00 in0.0 mm 0.00 in0.0 mm 0.00 in0.0 mm
02:50 AM 44.4°F6.9°C 39.9°F4.4°C 84% 16.8 mph SW27.0 kmh SW 18.3 mph29.5 kmh 28.91 in979.0 mb 0.00 in0.0 mm 0.00 in0.0 mm 0.00 in0.0 mm
03:00 AM 44.4°F6.9°C 39.9°F4.4°C 84% 16.8 mph SW27.0 kmh SW 18.3 mph29.5 kmh 28.91 in979.0 mb 0.00 in0.0 mm 0.00 in0.0 mm 0.00 in0.0 mm
03:10 AM 44.4°F6.9°C 39.9°F4.4°C 84% 16.8 mph SW27.0 kmh SW 18.3 mph29.5 kmh 28.90 in978.7 mb 0.00 in0.0 mm 0.00 in0.0 mm 0.00 in0.0 mm
03:20 AM 44.4°F6.9°C 39.9°F4.4°C 84% 16.8 mph SW27.0 kmh SW 18.3 mph29.5 kmh 28.90 in978.7 mb 0.00 in0.0 mm 0.00 in0.0 mm 0.00 in0.0 mm
03:30 AM 44.4°F6.9°C 39.9°F4.4°C 84% 16.8 mph SW27.0 kmh SW 18.3 mph29.5 kmh 28.90 in978.7 mb 0.00 in0.0 mm 0.00 in0.0 mm 0.00 in0.0 mm
03:40 AM 44.4°F6.9°C 39.9°F4.4°C 84% 16.8 mph SW27.0 kmh SW 18.3 mph29.5 kmh 28.89 in978.3 mb 0.00 in0.0 mm 0.00 in0.0 mm 0.00 in0.0 mm
03:50 AM 44.4°F6.9°C 39.9°F4.4°C 84% 16.8 mph SW27.0 kmh SW 18.3 mph29.5 kmh 28.89 in978.3 mb 0.00 in0.0 mm 0.00 in0.0 mm 0.00 in0.0 mm
04:00 AM 44.4°F6.9°C 39.9°F4.4°C 84% 16.8 mph SW27.0 kmh SW 18.3 mph29.5 kmh 28.89 in978.3 mb 0.00 in0.0 mm 0.00 in0.0 mm 0.00 in0.0 mm
04:10 AM 44.4°F6.9°C 39.9°F4.4°C 84% 16.8 mph SW27.0 kmh SW 18.3 mph29.5 kmh 28.89 in978.3 mb 0.00 in0.0 mm 0.00 in0.0 mm 0.00 in0.0 mm
04:20 AM 44.4°F6.9°C 39.9°F4.4°C 84% 16.8 mph SW27.0 kmh SW 18.3 mph29.5 kmh 28.89 in978.3 mb 0.00 in0.0 mm 0.00 in0.0 mm 0.00 in0.0 mm
04:30 AM 44.4°F6.9°C 39.9°F4.4°C 84% 16.8 mph SW27.0 kmh SW 18.3 mph29.5 kmh 28.89 in978.3 mb 0.00 in0.0 mm 0.00 in0.0 mm 0.00 in0.0 mm
04:40 AM 44.4°F6.9°C 39.9°F4.4°C 84% 16.8 mph SW27.0 kmh SW 18.3 mph29.5 kmh 28.89 in978.3 mb 0.00 in0.0 mm 0.00 in0.0 mm 0.00 in0.0 mm
04:50 AM 44.4°F6.9°C 39.9°F4.4°C 84% 16.8 mph SW27.0 kmh SW 18.3 mph29.5 kmh 28.89 in978.3 mb 0.00 in0.0 mm 0.00 in0.0 mm 0.00 in0.0 mm
05:00 AM 44.4°F6.9°C 39.9°F4.4°C 84% 16.8 mph SW27.0 kmh SW 18.3 mph29.5 kmh 28.89 in978.3 mb 0.00 in0.0 mm 0.00 in0.0 mm 0.00 in0.0 mm
05:10 AM 44.4°F6.9°C 39.9°F4.4°C 84% 16.8 mph SW27.0 kmh SW 18.3 mph29.5 kmh 28.88 in978.0 mb 0.00 in0.0 mm 0.00 in0.0 mm 0.00 in0.0 mm
05:20 AM 44.4°F6.9°C 39.9°F4.4°C 84% 16.8 mph SW27.0 kmh SW 18.3 mph29.5 kmh 28.88 in978.0 mb 0.00 in0.0 mm 0.00 in0.0 mm 0.00 in0.0 mm
05:30 AM 44.4°F6.9°C 39.9°F4.4°C 84% 16.8 mph SW27.0 kmh SW 18.3 mph29.5 kmh 28.88 in978.0 mb 0.00 in0.0 mm 0.00 in0.0 mm 0.00 in0.0 mm
05:40 AM 44.4°F6.9°C 39.9°F4.4°C 84% 16.8 mph SW27.0 kmh SW 18.3 mph29.5 kmh 28.88 in978.0 mb 0.00 in0.0 mm 0.00 in0.0 mm 0.00 in0.0 mm
05:50 AM 44.4°F6.9°C 39.9°F4.4°C 84% 16.8 mph SW27.0 kmh SW 18.3 mph29.5 kmh 28.88 in978.0 mb 0.00 in0.0 mm 0.00 in0.0 mm 0.00 in0.0 mm
06:00 AM 44.4°F6.9°C 39.9°F4.4°C 84% 16.8 mph SW27.0 kmh SW 18.3 mph29.5 kmh 28.88 in978.0 mb 0.00 in0.0 mm 0.00 in0.0 mm 0.00 in0.0 mm
06:10 AM 44.4°F6.9°C 39.9°F4.4°C 84% 16.8 mph SW27.0 kmh SW 18.3 mph29.5 kmh 28.88 in978.0 mb 0.00 in0.0 mm 0.00 in0.0 mm 0.00 in0.0 mm
06:20 AM 44.4°F6.9°C 39.9°F4.4°C 84% 16.8 mph SW27.0 kmh SW 18.3 mph29.5 kmh 28.88 in978.0 mb 0.00 in0.0 mm 0.00 in0.0 mm 0.00 in0.0 mm
06:30 AM 44.4°F6.9°C 39.9°F4.4°C 84% 16.8 mph SW27.0 kmh SW 18.3 mph29.5 kmh 28.88 in978.0 mb 0.00 in0.0 mm 0.00 in0.0 mm 0.00 in0.0 mm
06:40 AM 44.4°F6.9°C 39.9°F4.4°C 84% 16.8 mph SW27.0 kmh SW 18.3 mph29.5 kmh 28.87 in977.7 mb 0.00 in0.0 mm 0.00 in0.0 mm 0.00 in0.0 mm
06:50 AM 44.4°F6.9°C 39.9°F4.4°C 84% 16.8 mph SW27.0 kmh SW 18.3 mph29.5 kmh 28.88 in978.0 mb 0.00 in0.0 mm 0.00 in0.0 mm 0.00 in0.0 mm
07:00 AM 44.4°F6.9°C 37.7°F3.2°C 77% 3.8 mph SE6.1 kmh SE 3.8 mph6.1 kmh 28.88 in978.0 mb 0.00 in0.0 mm 0.00 in0.0 mm 0.00 in0.0 mm
07:10 AM 44.8°F7.1°C 37.3°F2.9°C 75% 5.3 mph SW8.5 kmh SW 11.4 mph18.3 kmh 28.87 in977.7 mb 0.00 in0.0 mm 0.00 in0.0 mm 0.00 in0.0 mm
07:20 AM 45.0°F7.2°C 37.2°F2.9°C 74% 6.3 mph SSW10.1 kmh SSW 11.4 mph18.3 kmh 28.86 in977.3 mb 0.00 in0.0 mm 0.00 in0.0 mm 0.00 in0.0 mm
07:30 AM 46.2°F7.9°C 37.0°F2.8°C 70% 5.8 mph SW9.3 kmh SW 8.3 mph13.4 kmh 28.86 in977.3 mb 0.00 in0.0 mm 0.00 in0.0 mm 0.00 in0.0 mm
07:40 AM 46.6°F8.1°C 36.6°F2.6°C 68% 6.4 mph SW10.3 kmh SW 9.8 mph15.8 kmh 28.85 in977.0 mb 0.00 in0.0 mm 0.00 in0.0 mm 0.00 in0.0 mm
07:50 AM 46.0°F7.8°C 36.1°F2.3°C 68% 7.4 mph SW11.9 kmh SW 9.8 mph15.8 kmh 28.86 in977.3 mb 0.00 in0.0 mm 0.00 in0.0 mm 0.00 in0.0 mm
08:00 AM 46.0°F7.8°C 36.1°F2.3°C 68% 7.3 mph SSE11.7 kmh SSE 9.8 mph15.8 kmh 28.85 in977.0 mb 0.00 in0.0 mm 0.00 in0.0 mm 0.00 in0.0 mm
08:10 AM 46.2°F7.9°C 36.3°F2.4°C 68% 7.5 mph SSW12.1 kmh SSW 10.7 mph17.2 kmh 28.85 in977.0 mb 0.00 in0.0 mm 0.00 in0.0 mm 0.00 in0.0 mm
08:20 AM 46.8°F8.2°C 36.8°F2.7°C 68% 6.6 mph SW10.6 kmh SW 8.3 mph13.4 kmh 28.84 in976.6 mb 0.00 in0.0 mm 0.00 in0.0 mm 0.00 in0.0 mm
08:30 AM 46.8°F8.2°C 36.4°F2.4°C 67% 7.4 mph SSW11.9 kmh SSW 10.7 mph17.2 kmh 28.85 in977.0 mb 0.00 in0.0 mm 0.00 in0.0 mm 0.00 in0.0 mm
08:40 AM 46.9°F8.3°C 36.6°F2.6°C 67% 7.7 mph SSW12.4 kmh SSW 9.8 mph15.8 kmh 28.85 in977.0 mb 0.00 in0.0 mm 0.00 in0.0 mm 0.00 in0.0 mm
08:50 AM 47.3°F8.5°C 36.9°F2.7°C 67% 6.3 mph WSW10.1 kmh WSW 8.3 mph13.4 kmh 28.85 in977.0 mb 0.00 in0.0 mm 0.00 in0.0 mm 0.00 in0.0 mm
09:00 AM 47.7°F8.7°C 36.9°F2.7°C 66% 6.6 mph WSW10.6 kmh WSW 8.3 mph13.4 kmh 28.84 in976.6 mb 0.00 in0.0 mm 0.00 in0.0 mm 0.00 in0.0 mm
09:10 AM 48.0°F8.9°C 36.8°F2.7°C 65% 7.1 mph SW11.4 kmh SW 9.8 mph15.8 kmh 28.84 in976.6 mb 0.00 in0.0 mm 0.00 in0.0 mm 0.00 in0.0 mm
09:20 AM 48.4°F9.1°C 37.2°F2.9°C 65% 6.0 mph SW9.7 kmh SW 6.9 mph11.1 kmh 28.84 in976.6 mb 0.00 in0.0 mm 0.00 in0.0 mm 0.00 in0.0 mm
09:30 AM 49.1°F9.5°C 37.5°F3.1°C 64% 7.4 mph SSW11.9 kmh SSW 11.4 mph18.3 kmh 28.84 in976.6 mb 0.00 in0.0 mm 0.00 in0.0 mm 0.00 in0.0 mm
09:40 AM 49.5°F9.7°C 37.4°F3.0°C 63% 7.1 mph SSW11.4 kmh SSW 9.2 mph14.8 kmh 28.84 in976.6 mb 0.00 in0.0 mm 0.00 in0.0 mm 0.00 in0.0 mm
09:50 AM 49.6°F9.8°C 37.2°F2.9°C 62% 8.1 mph SW13.0 kmh SW 9.8 mph15.8 kmh 28.84 in976.6 mb 0.00 in0.0 mm 0.00 in0.0 mm 0.00 in0.0 mm
10:00 AM 49.5°F9.7°C 36.6°F2.6°C 61% 7.3 mph SE11.7 kmh SE 10.7 mph17.2 kmh 28.84 in976.6 mb 0.00 in0.0 mm 0.00 in0.0 mm 0.00 in0.0 mm
10:10 AM 50.4°F10.2°C 37.8°F3.2°C 62% 6.3 mph W10.1 kmh W 8.3 mph13.4 kmh 28.84 in976.6 mb 0.00 in0.0 mm 0.00 in0.0 mm 0.00 in0.0 mm
10:20 AM 50.0°F10.0°C 37.1°F2.8°C 61% 7.1 mph SW11.4 kmh SW 9.8 mph15.8 kmh 28.83 in976.3 mb 0.00 in0.0 mm 0.00 in0.0 mm 0.00 in0.0 mm
10:30 AM 50.5°F10.3°C 37.6°F3.1°C 61% 6.8 mph SW10.9 kmh SW 11.4 mph18.3 kmh 28.83 in976.3 mb 0.00 in0.0 mm 0.00 in0.0 mm 0.00 in0.0 mm
10:40 AM 51.4°F10.8°C 38.0°F3.3°C 60% 7.6 mph NW12.2 kmh NW 13.6 mph21.9 kmh 28.83 in976.3 mb 0.00 in0.0 mm 0.00 in0.0 mm 0.00 in0.0 mm
10:50 AM 51.4°F10.8°C 37.2°F2.9°C 58% 7.5 mph WNW12.1 kmh WNW 12.1 mph19.5 kmh 28.83 in976.3 mb 0.00 in0.0 mm 0.00 in0.0 mm 0.00 in0.0 mm
11:00 AM 52.2°F11.2°C 36.9°F2.7°C 56% 6.5 mph W10.5 kmh W 9.2 mph14.8 kmh 28.83 in976.3 mb 0.00 in0.0 mm 0.00 in0.0 mm 0.00 in0.0 mm
11:10 AM 52.9°F11.6°C 36.7°F2.6°C 54% 7.0 mph SW11.3 kmh SW 9.8 mph15.8 kmh 28.84 in976.6 mb 0.00 in0.0 mm 0.00 in0.0 mm 0.00 in0.0 mm
11:20 AM 52.9°F11.6°C 36.7°F2.6°C 54% 6.1 mph SW9.8 kmh SW 11.4 mph18.3 kmh 28.82 in976.0 mb 0.00 in0.0 mm 0.00 in0.0 mm 0.00 in0.0 mm
11:30 AM 53.6°F12.0°C 35.9°F2.2°C 51% 6.5 mph SW10.5 kmh SW 9.2 mph14.8 kmh 28.82 in976.0 mb 0.00 in0.0 mm 0.00 in0.0 mm 0.00 in0.0 mm
11:40 AM 53.6°F12.0°C 35.9°F2.2°C 51% 6.9 mph SW11.1 kmh SW 12.1 mph19.5 kmh 28.82 in976.0 mb 0.00 in0.0 mm 0.00 in0.0 mm 0.00 in0.0 mm
11:50 AM 53.8°F12.1°C 35.6°F2.0°C 50% 6.1 mph W9.8 kmh W 8.3 mph13.4 kmh 28.81 in975.6 mb 0.00 in0.0 mm 0.00 in0.0 mm 0.00 in0.0 mm
12:00 PM 54.1°F12.3°C 35.9°F2.2°C 50% 5.9 mph SW9.5 kmh SW 9.8 mph15.8 kmh 28.81 in975.6 mb 0.00 in0.0 mm 0.00 in0.0 mm 0.00 in0.0 mm
12:10 PM 54.3°F12.4°C 35.1°F1.7°C 48% 6.3 mph WSW10.1 kmh WSW 9.8 mph15.8 kmh 28.80 in975.3 mb 0.00 in0.0 mm 0.00 in0.0 mm 0.00 in0.0 mm
12:20 PM 54.0°F12.2°C 35.8°F2.1°C 50% 6.2 mph WSW10.0 kmh WSW 7.6 mph12.2 kmh 28.80 in975.3 mb 0.00 in0.0 mm 0.00 in0.0 mm 0.00 in0.0 mm
12:30 PM 53.6°F12.0°C 35.4°F1.9°C 50% 6.2 mph SSW10.0 kmh SSW 7.6 mph12.2 kmh 28.79 in974.9 mb 0.00 in0.0 mm 0.00 in0.0 mm 0.00 in0.0 mm
12:40 PM 54.0°F12.2°C 34.2°F1.2°C 47% 5.9 mph WSW9.5 kmh WSW 8.3 mph13.4 kmh 28.79 in974.9 mb 0.00 in0.0 mm 0.00 in0.0 mm 0.00 in0.0 mm
12:50 PM 53.8°F12.1°C 35.6°F2.0°C 50% 5.5 mph SW8.9 kmh SW 8.3 mph13.4 kmh 28.79 in974.9 mb 0.01 in0.3 mm 0.06 in1.5 mm 0.01 in0.3 mm
01:00 PM 52.9°F11.6°C 36.2°F2.3°C 53% 6.4 mph SW10.3 kmh SW 10.7 mph17.2 kmh 28.78 in974.6 mb 0.01 in0.3 mm 0.00 in0.0 mm 0.01 in0.3 mm
01:10 PM 53.8°F12.1°C 37.5°F3.1°C 54% 7.8 mph S12.6 kmh S 13.6 mph21.9 kmh 28.77 in974.3 mb 0.01 in0.3 mm 0.00 in0.0 mm 0.01 in0.3 mm
01:20 PM 54.5°F12.5°C 34.7°F1.5°C 47% 7.2 mph S11.6 kmh S 12.1 mph19.5 kmh 28.77 in974.3 mb 0.01 in0.3 mm 0.00 in0.0 mm 0.01 in0.3 mm
01:30 PM 55.4°F13.0°C 35.5°F1.9°C 47% 6.1 mph SW9.8 kmh SW 8.3 mph13.4 kmh 28.76 in973.9 mb 0.01 in0.3 mm 0.00 in0.0 mm 0.01 in0.3 mm
01:40 PM 55.6°F13.1°C 35.7°F2.1°C 47% 6.7 mph SW10.8 kmh SW 9.2 mph14.8 kmh 28.76 in973.9 mb 0.01 in0.3 mm 0.00 in0.0 mm 0.01 in0.3 mm
01:50 PM 54.5°F12.5°C 34.7°F1.5°C 47% 7.2 mph S11.6 kmh S 11.4 mph18.3 kmh 28.75 in973.6 mb 0.00 in0.0 mm 0.00 in0.0 mm 0.01 in0.3 mm
02:00 PM 54.5°F12.5°C 34.7°F1.5°C 47% 6.0 mph SW9.7 kmh SW 10.7 mph17.2 kmh 28.75 in973.6 mb 0.00 in0.0 mm 0.00 in0.0 mm 0.01 in0.3 mm
02:10 PM 53.8°F12.1°C 35.6°F2.0°C 50% 7.0 mph S11.3 kmh S 10.7 mph17.2 kmh 28.74 in973.2 mb 0.00 in0.0 mm 0.00 in0.0 mm 0.01 in0.3 mm
02:20 PM 52.7°F11.5°C 34.6°F1.4°C 50% 8.5 mph S13.7 kmh S 10.7 mph17.2 kmh 28.74 in973.2 mb 0.00 in0.0 mm 0.00 in0.0 mm 0.01 in0.3 mm
02:30 PM 52.3°F11.3°C 34.8°F1.6°C 51% 8.2 mph SW13.2 kmh SW 10.7 mph17.2 kmh 28.73 in972.9 mb 0.00 in0.0 mm 0.00 in0.0 mm 0.01 in0.3 mm
02:40 PM 52.2°F11.2°C 34.6°F1.4°C 51% 8.4 mph SSW13.5 kmh SSW 10.7 mph17.2 kmh 28.73 in972.9 mb 0.00 in0.0 mm 0.00 in0.0 mm 0.01 in0.3 mm
02:50 PM 52.3°F11.3°C 34.8°F1.6°C 51% 8.0 mph S12.9 kmh S 11.4 mph18.3 kmh 28.73 in972.9 mb 0.00 in0.0 mm 0.00 in0.0 mm 0.01 in0.3 mm
03:00 PM 50.9°F10.5°C 35.3°F1.8°C 55% 11.5 mph SW18.5 kmh SW 15.2 mph24.5 kmh 28.72 in972.6 mb 0.00 in0.0 mm 0.00 in0.0 mm 0.01 in0.3 mm
03:10 PM 50.2°F10.1°C 36.8°F2.7°C 60% 8.6 mph SW13.8 kmh SW 12.1 mph19.5 kmh 28.72 in972.6 mb 0.00 in0.0 mm 0.00 in0.0 mm 0.01 in0.3 mm
03:20 PM 49.8°F9.9°C 36.9°F2.7°C 61% 8.9 mph S14.3 kmh S 11.4 mph18.3 kmh 28.72 in972.6 mb 0.00 in0.0 mm 0.00 in0.0 mm 0.01 in0.3 mm
03:30 PM 49.8°F9.9°C 36.9°F2.7°C 61% 9.0 mph SW14.5 kmh SW 13.6 mph21.9 kmh 28.71 in972.2 mb 0.00 in0.0 mm 0.00 in0.0 mm 0.01 in0.3 mm
03:40 PM 49.5°F9.7°C 36.6°F2.6°C 61% 9.5 mph S15.3 kmh S 12.1 mph19.5 kmh 28.71 in972.2 mb 0.00 in0.0 mm 0.00 in0.0 mm 0.01 in0.3 mm
03:50 PM 49.1°F9.5°C 36.2°F2.3°C 61% 9.8 mph SSW15.8 kmh SSW 14.5 mph23.3 kmh 28.70 in971.9 mb 0.00 in0.0 mm 0.00 in0.0 mm 0.01 in0.3 mm
04:00 PM 48.7°F9.3°C 35.9°F2.2°C 61% 7.6 mph S12.2 kmh S 12.1 mph19.5 kmh 28.70 in971.9 mb 0.00 in0.0 mm 0.00 in0.0 mm 0.01 in0.3 mm
04:10 PM 48.4°F9.1°C 36.0°F2.2°C 62% 7.7 mph S12.4 kmh S 13.0 mph20.9 kmh 28.70 in971.9 mb 0.00 in0.0 mm 0.00 in0.0 mm 0.01 in0.3 mm
04:20 PM 48.2°F9.0°C 35.8°F2.1°C 62% 6.8 mph SSW10.9 kmh SSW 9.2 mph14.8 kmh 28.69 in971.6 mb 0.00 in0.0 mm 0.00 in0.0 mm 0.01 in0.3 mm
04:30 PM 48.0°F8.9°C 36.0°F2.2°C 63% 6.0 mph S9.7 kmh S 7.6 mph12.2 kmh 28.69 in971.6 mb 0.00 in0.0 mm 0.00 in0.0 mm 0.01 in0.3 mm
04:40 PM 48.0°F8.9°C 36.0°F2.2°C 63% 6.2 mph SSW10.0 kmh SSW 8.3 mph13.4 kmh 28.68 in971.2 mb 0.00 in0.0 mm 0.00 in0.0 mm 0.01 in0.3 mm
04:50 PM 47.8°F8.8°C 35.5°F1.9°C 62% 6.0 mph S9.7 kmh S 10.7 mph17.2 kmh 28.68 in971.2 mb 0.00 in0.0 mm 0.00 in0.0 mm 0.01 in0.3 mm
05:00 PM 47.7°F8.7°C 35.7°F2.1°C 63% 6.0 mph S9.7 kmh S 8.3 mph13.4 kmh 28.67 in970.9 mb 0.00 in0.0 mm 0.00 in0.0 mm 0.01 in0.3 mm
05:10 PM 47.1°F8.4°C 36.0°F2.2°C 65% 4.4 mph S7.1 kmh S 6.9 mph11.1 kmh 28.68 in971.2 mb 0.01 in0.3 mm 0.06 in1.5 mm 0.02 in0.5 mm
05:20 PM 46.4°F8.0°C 37.2°F2.9°C 70% 3.2 mph S5.1 kmh S 4.5 mph7.2 kmh 28.67 in970.9 mb 0.01 in0.3 mm 0.00 in0.0 mm 0.02 in0.5 mm
05:30 PM 46.2°F7.9°C 37.3°F2.9°C 71% 3.6 mph SSE5.8 kmh SSE 4.5 mph7.2 kmh 28.66 in970.5 mb 0.02 in0.5 mm 0.06 in1.5 mm 0.04 in1.0 mm
05:40 PM 46.0°F7.8°C 37.5°F3.1°C 72% 3.4 mph SE5.5 kmh SE 6.9 mph11.1 kmh 28.66 in970.5 mb 0.02 in0.5 mm 0.00 in0.0 mm 0.04 in1.0 mm
05:50 PM 45.9°F7.7°C 37.7°F3.2°C 73% 4.7 mph ESE7.6 kmh ESE 8.3 mph13.4 kmh 28.66 in970.5 mb 0.02 in0.5 mm 0.00 in0.0 mm 0.04 in1.0 mm
06:00 PM 45.7°F7.6°C 37.5°F3.1°C 73% 3.8 mph E6.1 kmh E 6.0 mph9.7 kmh 28.66 in970.5 mb 0.02 in0.5 mm 0.00 in0.0 mm 0.04 in1.0 mm
06:10 PM 45.3°F7.4°C 39.5°F4.2°C 80% 4.7 mph E7.6 kmh E 7.6 mph12.2 kmh 28.65 in970.2 mb 0.02 in0.5 mm 0.00 in0.0 mm 0.05 in1.3 mm
06:20 PM 45.1°F7.3°C 39.3°F4.1°C 80% 4.3 mph SSE6.9 kmh SSE 7.6 mph12.2 kmh 28.66 in970.5 mb 0.02 in0.5 mm 0.00 in0.0 mm 0.05 in1.3 mm
06:30 PM 44.8°F7.1°C 39.0°F3.9°C 80% 6.0 mph ESE9.7 kmh ESE 7.6 mph12.2 kmh 28.66 in970.5 mb 0.02 in0.5 mm 0.00 in0.0 mm 0.06 in1.5 mm
06:40 PM 44.6°F7.0°C 39.1°F3.9°C 81% 5.3 mph SSE8.5 kmh SSE 9.8 mph15.8 kmh 28.65 in970.2 mb 0.02 in0.5 mm 0.00 in0.0 mm 0.06 in1.5 mm
06:50 PM 44.4°F6.9°C 39.0°F3.9°C 81% 4.4 mph SE7.1 kmh SE 6.9 mph11.1 kmh 28.65 in970.2 mb 0.02 in0.5 mm 0.00 in0.0 mm 0.06 in1.5 mm
07:00 PM 44.4°F6.9°C 39.0°F3.9°C 81% 4.6 mph S7.4 kmh S 7.6 mph12.2 kmh 28.65 in970.2 mb 0.02 in0.5 mm 0.00 in0.0 mm 0.06 in1.5 mm
07:10 PM 44.4°F6.9°C 39.0°F3.9°C 81% 5.1 mph ENE8.2 kmh ENE 7.6 mph12.2 kmh 28.64 in969.9 mb 0.01 in0.3 mm 0.00 in0.0 mm 0.06 in1.5 mm
07:20 PM 44.4°F6.9°C 39.3°F4.1°C 82% 5.1 mph N8.2 kmh N 7.6 mph12.2 kmh 28.65 in970.2 mb 0.01 in0.3 mm 0.00 in0.0 mm 0.06 in1.5 mm
07:30 PM 44.4°F6.9°C 39.3°F4.1°C 82% 4.4 mph ENE7.1 kmh ENE 6.9 mph11.1 kmh 28.64 in969.9 mb 0.00 in0.0 mm 0.00 in0.0 mm 0.06 in1.5 mm
07:40 PM 44.4°F6.9°C 39.3°F4.1°C 82% 4.5 mph SE7.2 kmh SE 7.6 mph12.2 kmh 28.64 in969.9 mb 0.01 in0.3 mm 0.06 in1.5 mm 0.07 in1.8 mm
07:50 PM 44.6°F7.0°C 39.5°F4.2°C 82% 5.6 mph S9.0 kmh S 8.3 mph13.4 kmh 28.63 in969.5 mb 0.01 in0.3 mm 0.00 in0.0 mm 0.07 in1.8 mm
08:00 PM 44.6°F7.0°C 39.8°F4.3°C 83% 6.9 mph S11.1 kmh S 9.8 mph15.8 kmh 28.63 in969.5 mb 0.01 in0.3 mm 0.00 in0.0 mm 0.07 in1.8 mm
08:10 PM 44.6°F7.0°C 39.8°F4.3°C 83% 6.4 mph SSW10.3 kmh SSW 9.8 mph15.8 kmh 28.63 in969.5 mb 0.01 in0.3 mm 0.00 in0.0 mm 0.07 in1.8 mm
08:20 PM 44.6°F7.0°C 39.8°F4.3°C 83% 5.9 mph SSE9.5 kmh SSE 9.2 mph14.8 kmh 28.62 in969.2 mb 0.01 in0.3 mm 0.00 in0.0 mm 0.07 in1.8 mm
08:30 PM 44.4°F6.9°C 39.6°F4.2°C 83% 4.5 mph S7.2 kmh S 5.4 mph8.7 kmh 28.62 in969.2 mb 0.02 in0.5 mm 0.06 in1.5 mm 0.08 in2.0 mm
08:40 PM 44.2°F6.8°C 39.4°F4.1°C 83% 2.4 mph E3.9 kmh E 6.0 mph9.7 kmh 28.62 in969.2 mb 0.01 in0.3 mm 0.00 in0.0 mm 0.08 in2.0 mm
08:50 PM 44.2°F6.8°C 39.4°F4.1°C 83% 3.5 mph SE5.6 kmh SE 5.4 mph8.7 kmh 28.61 in968.8 mb 0.01 in0.3 mm 0.00 in0.0 mm 0.08 in2.0 mm
09:00 PM 44.1°F6.7°C 39.2°F4.0°C 83% 3.3 mph ESE5.3 kmh ESE 5.4 mph8.7 kmh 28.61 in968.8 mb 0.01 in0.3 mm 0.00 in0.0 mm 0.08 in2.0 mm
09:10 PM 44.1°F6.7°C 39.2°F4.0°C 83% 3.5 mph SE5.6 kmh SE 5.4 mph8.7 kmh 28.61 in968.8 mb 0.01 in0.3 mm 0.00 in0.0 mm 0.08 in2.0 mm
09:20 PM 44.1°F6.7°C 39.2°F4.0°C 83% 3.0 mph E4.8 kmh E 5.4 mph8.7 kmh 28.61 in968.8 mb 0.01 in0.3 mm 0.00 in0.0 mm 0.08 in2.0 mm
09:30 PM 44.2°F6.8°C 39.4°F4.1°C 83% 4.4 mph E7.1 kmh E 6.0 mph9.7 kmh 28.61 in968.8 mb 0.00 in0.0 mm 0.00 in0.0 mm 0.08 in2.0 mm
09:40 PM 44.2°F6.8°C 39.4°F4.1°C 83% 4.5 mph ESE7.2 kmh ESE 7.6 mph12.2 kmh 28.61 in968.8 mb 0.00 in0.0 mm 0.00 in0.0 mm 0.08 in2.0 mm
09:50 PM 44.4°F6.9°C 39.6°F4.2°C 83% 6.8 mph SSW10.9 kmh SSW 11.4 mph18.3 kmh 28.61 in968.8 mb 0.01 in0.3 mm 0.06 in1.5 mm 0.09 in2.3 mm
10:00 PM 44.6°F7.0°C 39.8°F4.3°C 83% 3.8 mph ESE6.1 kmh ESE 8.3 mph13.4 kmh 28.61 in968.8 mb 0.01 in0.3 mm 0.00 in0.0 mm 0.09 in2.3 mm
10:10 PM 44.6°F7.0°C 40.1°F4.5°C 84% 5.6 mph SE9.0 kmh SE 9.2 mph14.8 kmh 28.61 in968.8 mb 0.01 in0.3 mm 0.00 in0.0 mm 0.09 in2.3 mm
10:20 PM 44.6°F7.0°C 40.1°F4.5°C 84% 2.2 mph E3.5 kmh E 2.2 mph3.5 kmh 28.60 in968.5 mb 0.01 in0.3 mm 0.00 in0.0 mm 0.09 in2.3 mm
10:30 PM 44.6°F7.0°C 40.1°F4.5°C 84% 2.2 mph E3.5 kmh E 2.2 mph3.5 kmh 28.60 in968.5 mb 0.01 in0.3 mm 0.00 in0.0 mm 0.09 in2.3 mm
10:40 PM 44.6°F7.0°C 40.1°F4.5°C 84% 2.2 mph E3.5 kmh E 2.2 mph3.5 kmh 28.60 in968.5 mb 0.01 in0.3 mm 0.00 in0.0 mm 0.09 in2.3 mm
10:50 PM 44.6°F7.0°C 40.1°F4.5°C 84% 2.2 mph E3.5 kmh E 2.2 mph3.5 kmh 28.61 in968.8 mb 0.00 in0.0 mm 0.00 in0.0 mm 0.09 in2.3 mm
11:00 PM 44.6°F7.0°C 40.1°F4.5°C 84% 2.2 mph E3.5 kmh E 2.2 mph3.5 kmh 28.60 in968.5 mb 0.00 in0.0 mm 0.00 in0.0 mm 0.09 in2.3 mm
11:10 PM 44.6°F7.0°C 40.1°F4.5°C 84% 2.2 mph E3.5 kmh E 2.2 mph3.5 kmh 28.60 in968.5 mb 0.00 in0.0 mm 0.00 in0.0 mm 0.09 in2.3 mm
11:20 PM 44.6°F7.0°C 40.1°F4.5°C 84% 2.2 mph E3.5 kmh E 2.2 mph3.5 kmh 28.61 in968.8 mb 0.00 in0.0 mm 0.00 in0.0 mm 0.09 in2.3 mm
11:30 PM 44.6°F7.0°C 40.1°F4.5°C 84% 2.2 mph E3.5 kmh E 2.2 mph3.5 kmh 28.60 in968.5 mb 0.00 in0.0 mm 0.00 in0.0 mm 0.09 in2.3 mm
11:40 PM 44.6°F7.0°C 40.1°F4.5°C 84% 2.2 mph E3.5 kmh E 2.2 mph3.5 kmh 28.60 in968.5 mb 0.00 in0.0 mm 0.00 in0.0 mm 0.09 in2.3 mm
11:50 PM 44.6°F7.0°C 40.1°F4.5°C 84% 2.2 mph E3.5 kmh E 2.2 mph3.5 kmh 28.60 in968.5 mb 0.00 in0.0 mm 0.00 in0.0 mm 0.09 in2.3 mm